Terrytown, Nebraska
Current Conditions -  °F | °C
As of 6:53 AM on Friday 24 Oct 2014 (Local Time) from KBFF Reporting Station
Clear Clear  
Wind Chill: 45°   Ceiling: Unl
Heat Index: 49°   Visibility: 10mi
Dew Point: 37°   Wind: 8mph
Humidity: 64%   Direction: 340°NNW
Pressure: 30.04"   Gusts: NA
Location:  41.7826°N, 103.681°W
Report Text: KBFF 241253Z AUTO 34007KT 10SM CLR 09/03 A3004 RMK AO2 SLP156 T00940028
Loading
Personal Weather Stations






























Interactive Weather Map
Tropical Storm Tracking
New forecast layout! Learn more

10-Day Weather Forecast

Advertisements
Track Severe Weather on mobile